sensor_id;sensor_type;location;lat;lon;timestamp;P1;durP1;ratioP1;P2;durP2;ratioP2
5456;SDS011;2751;49.802;9.944;2023-07-29T00:01:30;5.87;;;5.37;;
5456;SDS011;2751;49.802;9.944;2023-07-29T00:03:57;5.60;;;4.90;;
5456;SDS011;2751;49.802;9.944;2023-07-29T00:06:23;6.17;;;5.70;;
5456;SDS011;2751;49.802;9.944;2023-07-29T00:08:50;6.27;;;5.70;;
5456;SDS011;2751;49.802;9.944;2023-07-29T00:11:17;5.57;;;5.17;;
5456;SDS011;2751;49.802;9.944;2023-07-29T00:13:45;6.60;;;5.30;;
5456;SDS011;2751;49.802;9.944;2023-07-29T00:16:15;6.03;;;5.63;;
5456;SDS011;2751;49.802;9.944;2023-07-29T00:18:42;5.90;;;5.40;;
5456;SDS011;2751;49.802;9.944;2023-07-29T00:21:09;6.53;;;6.03;;
5456;SDS011;2751;49.802;9.944;2023-07-29T00:23:36;7.37;;;6.10;;
5456;SDS011;2751;49.802;9.944;2023-07-29T00:26:03;7.03;;;6.30;;
5456;SDS011;2751;49.802;9.944;2023-07-29T00:28:30;7.00;;;6.50;;
5456;SDS011;2751;49.802;9.944;2023-07-29T00:30:58;6.70;;;6.13;;
5456;SDS011;2751;49.802;9.944;2023-07-29T00:33:25;6.60;;;5.47;;
5456;SDS011;2751;49.802;9.944;2023-07-29T00:35:52;5.83;;;5.07;;
5456;SDS011;2751;49.802;9.944;2023-07-29T00:38:19;6.50;;;6.00;;
5456;SDS011;2751;49.802;9.944;2023-07-29T00:40:45;7.20;;;5.30;;
5456;SDS011;2751;49.802;9.944;2023-07-29T00:43:12;5.97;;;5.57;;
5456;SDS011;2751;49.802;9.944;2023-07-29T00:45:39;6.33;;;5.83;;
5456;SDS011;2751;49.802;9.944;2023-07-29T00:48:10;7.87;;;5.87;;
5456;SDS011;2751;49.802;9.944;2023-07-29T00:50:37;6.90;;;6.30;;
5456;SDS011;2751;49.802;9.944;2023-07-29T00:53:04;6.60;;;6.10;;
5456;SDS011;2751;49.802;9.944;2023-07-29T00:55:31;6.40;;;5.80;;
5456;SDS011;2751;49.802;9.944;2023-07-29T00:57:59;7.10;;;6.43;;
5456;SDS011;2751;49.802;9.944;2023-07-29T01:00:26;6.60;;;6.00;;
5456;SDS011;2751;49.802;9.944;2023-07-29T01:02:53;6.43;;;5.93;;
5456;SDS011;2751;49.802;9.944;2023-07-29T01:05:22;6.50;;;5.80;;
5456;SDS011;2751;49.802;9.944;2023-07-29T01:07:54;9.93;;;6.17;;
5456;SDS011;2751;49.802;9.944;2023-07-29T01:10:29;6.57;;;6.07;;
5456;SDS011;2751;49.802;9.944;2023-07-29T01:13:02;7.30;;;5.77;;
5456;SDS011;2751;49.802;9.944;2023-07-29T01:15:33;7.33;;;5.87;;
5456;SDS011;2751;49.802;9.944;2023-07-29T01:18:07;6.93;;;6.33;;
5456;SDS011;2751;49.802;9.944;2023-07-29T01:20:39;6.83;;;6.33;;
5456;SDS011;2751;49.802;9.944;2023-07-29T01:23:08;6.17;;;5.63;;
5456;SDS011;2751;49.802;9.944;2023-07-29T01:25:36;6.37;;;5.53;;
5456;SDS011;2751;49.802;9.944;2023-07-29T01:28:03;5.93;;;5.53;;
5456;SDS011;2751;49.802;9.944;2023-07-29T01:30:33;5.93;;;5.50;;
5456;SDS011;2751;49.802;9.944;2023-07-29T01:33:04;8.10;;;5.87;;
5456;SDS011;2751;49.802;9.944;2023-07-29T01:35:37;5.63;;;5.23;;
5456;SDS011;2751;49.802;9.944;2023-07-29T01:38:09;5.60;;;5.20;;
5456;SDS011;2751;49.802;9.944;2023-07-29T01:40:41;5.90;;;5.30;;
5456;SDS011;2751;49.802;9.944;2023-07-29T01:43:10;5.93;;;5.47;;
5456;SDS011;2751;49.802;9.944;2023-07-29T01:45:37;7.33;;;5.40;;
5456;SDS011;2751;49.802;9.944;2023-07-29T01:48:04;5.90;;;5.43;;
5456;SDS011;2751;49.802;9.944;2023-07-29T01:50:32;4.90;;;4.60;;
5456;SDS011;2751;49.802;9.944;2023-07-29T01:52:59;4.90;;;4.50;;
5456;SDS011;2751;49.802;9.944;2023-07-29T01:55:25;6.43;;;5.83;;
5456;SDS011;2751;49.802;9.944;2023-07-29T01:57:54;5.13;;;4.77;;
5456;SDS011;2751;49.802;9.944;2023-07-29T02:00:21;5.77;;;5.33;;
5456;SDS011;2751;49.802;9.944;2023-07-29T02:02:48;5.47;;;5.07;;
5456;SDS011;2751;49.802;9.944;2023-07-29T02:05:15;9.23;;;6.07;;
5456;SDS011;2751;49.802;9.944;2023-07-29T02:07:42;6.43;;;5.93;;
5456;SDS011;2751;49.802;9.944;2023-07-29T02:10:09;5.97;;;5.57;;
5456;SDS011;2751;49.802;9.944;2023-07-29T02:12:35;6.80;;;6.30;;
5456;SDS011;2751;49.802;9.944;2023-07-29T02:15:04;6.57;;;6.07;;
5456;SDS011;2751;49.802;9.944;2023-07-29T02:17:32;5.77;;;5.37;;
5456;SDS011;2751;49.802;9.944;2023-07-29T02:19:59;5.97;;;5.30;;
5456;SDS011;2751;49.802;9.944;2023-07-29T02:22:26;5.83;;;5.30;;
5456;SDS011;2751;49.802;9.944;2023-07-29T02:24:52;5.47;;;5.03;;
5456;SDS011;2751;49.802;9.944;2023-07-29T02:27:19;5.90;;;5.30;;
5456;SDS011;2751;49.802;9.944;2023-07-29T02:29:46;6.23;;;5.57;;
5456;SDS011;2751;49.802;9.944;2023-07-29T02:32:15;5.00;;;4.63;;
5456;SDS011;2751;49.802;9.944;2023-07-29T02:34:41;4.97;;;4.60;;
5456;SDS011;2751;49.802;9.944;2023-07-29T02:37:08;5.40;;;5.00;;
5456;SDS011;2751;49.802;9.944;2023-07-29T02:39:35;5.10;;;4.70;;
5456;SDS011;2751;49.802;9.944;2023-07-29T02:42:02;5.13;;;4.73;;
5456;SDS011;2751;49.802;9.944;2023-07-29T02:44:30;5.30;;;5.00;;
5456;SDS011;2751;49.802;9.944;2023-07-29T02:46:57;4.90;;;4.60;;
5456;SDS011;2751;49.802;9.944;2023-07-29T02:49:25;5.20;;;4.80;;
5456;SDS011;2751;49.802;9.944;2023-07-29T02:51:52;5.07;;;4.77;;
5456;SDS011;2751;49.802;9.944;2023-07-29T02:54:19;5.67;;;5.27;;
5456;SDS011;2751;49.802;9.944;2023-07-29T02:56:45;5.87;;;5.37;;
5456;SDS011;2751;49.802;9.944;2023-07-29T02:59:12;5.37;;;4.40;;
5456;SDS011;2751;49.802;9.944;2023-07-29T03:01:39;4.97;;;4.57;;
5456;SDS011;2751;49.802;9.944;2023-07-29T03:04:06;7.60;;;4.23;;
5456;SDS011;2751;49.802;9.944;2023-07-29T03:06:34;5.23;;;4.70;;
5456;SDS011;2751;49.802;9.944;2023-07-29T03:09:01;4.13;;;3.83;;
5456;SDS011;2751;49.802;9.944;2023-07-29T03:11:28;4.50;;;4.20;;
5456;SDS011;2751;49.802;9.944;2023-07-29T03:13:56;4.20;;;3.83;;
5456;SDS011;2751;49.802;9.944;2023-07-29T03:16:22;4.27;;;3.47;;
5456;SDS011;2751;49.802;9.944;2023-07-29T03:18:49;6.43;;;3.90;;
5456;SDS011;2751;49.802;9.944;2023-07-29T03:21:16;10.40;;;5.53;;
5456;SDS011;2751;49.802;9.944;2023-07-29T03:23:45;7.03;;;5.70;;
5456;SDS011;2751;49.802;9.944;2023-07-29T03:26:12;8.00;;;5.13;;
5456;SDS011;2751;49.802;9.944;2023-07-29T03:28:40;6.63;;;5.43;;
5456;SDS011;2751;49.802;9.944;2023-07-29T03:31:07;6.07;;;5.40;;
5456;SDS011;2751;49.802;9.944;2023-07-29T03:33:35;8.13;;;5.73;;
5456;SDS011;2751;49.802;9.944;2023-07-29T03:36:02;6.10;;;5.50;;
5456;SDS011;2751;49.802;9.944;2023-07-29T03:38:29;7.10;;;5.23;;
5456;SDS011;2751;49.802;9.944;2023-07-29T03:40:59;7.27;;;5.87;;
5456;SDS011;2751;49.802;9.944;2023-07-29T03:43:27;8.63;;;6.17;;
5456;SDS011;2751;49.802;9.944;2023-07-29T03:45:55;6.13;;;5.63;;
5456;SDS011;2751;49.802;9.944;2023-07-29T03:48:22;5.93;;;5.33;;
5456;SDS011;2751;49.802;9.944;2023-07-29T03:50:48;7.13;;;5.73;;
5456;SDS011;2751;49.802;9.944;2023-07-29T03:53:15;6.43;;;4.70;;
5456;SDS011;2751;49.802;9.944;2023-07-29T03:55:42;5.00;;;4.60;;
5456;SDS011;2751;49.802;9.944;2023-07-29T03:58:11;5.30;;;4.90;;
5456;SDS011;2751;49.802;9.944;2023-07-29T04:00:38;7.20;;;5.00;;
5456;SDS011;2751;49.802;9.944;2023-07-29T04:03:05;4.37;;;4.00;;
5456;SDS011;2751;49.802;9.944;2023-07-29T04:05:32;9.47;;;4.30;;
5456;SDS011;2751;49.802;9.944;2023-07-29T04:07:59;5.17;;;3.90;;
5456;SDS011;2751;49.802;9.944;2023-07-29T04:10:26;7.23;;;3.90;;
5456;SDS011;2751;49.802;9.944;2023-07-29T04:12:55;5.20;;;3.73;;
5456;SDS011;2751;49.802;9.944;2023-07-29T04:15:23;3.93;;;3.63;;
5456;SDS011;2751;49.802;9.944;2023-07-29T04:17:50;10.17;;;3.43;;
5456;SDS011;2751;49.802;9.944;2023-07-29T04:20:16;9.07;;;3.87;;
5456;SDS011;2751;49.802;9.944;2023-07-29T04:22:43;3.70;;;3.30;;
5456;SDS011;2751;49.802;9.944;2023-07-29T04:25:10;6.27;;;3.90;;
5456;SDS011;2751;49.802;9.944;2023-07-29T04:27:38;5.53;;;3.90;;
5456;SDS011;2751;49.802;9.944;2023-07-29T04:30:05;3.90;;;3.60;;
5456;SDS011;2751;49.802;9.944;2023-07-29T04:32:34;3.90;;;3.60;;
5456;SDS011;2751;49.802;9.944;2023-07-29T04:35:01;3.70;;;3.40;;
5456;SDS011;2751;49.802;9.944;2023-07-29T04:37:28;4.30;;;3.30;;
5456;SDS011;2751;49.802;9.944;2023-07-29T04:39:55;8.87;;;3.73;;
5456;SDS011;2751;49.802;9.944;2023-07-29T04:42:21;4.33;;;3.70;;
5456;SDS011;2751;49.802;9.944;2023-07-29T04:44:48;7.00;;;3.70;;
5456;SDS011;2751;49.802;9.944;2023-07-29T04:47:15;4.17;;;3.77;;
5456;SDS011;2751;49.802;9.944;2023-07-29T04:49:43;4.57;;;3.50;;
5456;SDS011;2751;49.802;9.944;2023-07-29T04:52:10;3.77;;;3.43;;
5456;SDS011;2751;49.802;9.944;2023-07-29T04:54:37;5.20;;;4.13;;
5456;SDS011;2751;49.802;9.944;2023-07-29T04:57:04;3.80;;;3.50;;
5456;SDS011;2751;49.802;9.944;2023-07-29T04:59:32;5.40;;;3.63;;
5456;SDS011;2751;49.802;9.944;2023-07-29T05:01:58;4.07;;;3.70;;
5456;SDS011;2751;49.802;9.944;2023-07-29T05:04:25;7.27;;;2.90;;
5456;SDS011;2751;49.802;9.944;2023-07-29T05:06:54;3.57;;;2.70;;
5456;SDS011;2751;49.802;9.944;2023-07-29T05:09:21;3.20;;;2.90;;
5456;SDS011;2751;49.802;9.944;2023-07-29T05:11:48;3.90;;;3.40;;
5456;SDS011;2751;49.802;9.944;2023-07-29T05:14:16;6.53;;;3.80;;
5456;SDS011;2751;49.802;9.944;2023-07-29T05:16:43;3.20;;;3.00;;
5456;SDS011;2751;49.802;9.944;2023-07-29T05:19:10;6.70;;;3.43;;
5456;SDS011;2751;49.802;9.944;2023-07-29T05:21:38;7.33;;;3.43;;
5456;SDS011;2751;49.802;9.944;2023-07-29T05:24:06;3.63;;;3.33;;
5456;SDS011;2751;49.802;9.944;2023-07-29T05:26:33;4.67;;;3.13;;
5456;SDS011;2751;49.802;9.944;2023-07-29T05:29:00;3.20;;;2.90;;
5456;SDS011;2751;49.802;9.944;2023-07-29T05:31:29;3.47;;;3.20;;
5456;SDS011;2751;49.802;9.944;2023-07-29T05:33:55;4.33;;;3.10;;
5456;SDS011;2751;49.802;9.944;2023-07-29T05:36:22;4.20;;;3.20;;
5456;SDS011;2751;49.802;9.944;2023-07-29T05:38:49;3.50;;;3.30;;
5456;SDS011;2751;49.802;9.944;2023-07-29T05:41:19;3.07;;;2.87;;
5456;SDS011;2751;49.802;9.944;2023-07-29T05:43:46;6.70;;;3.00;;
5456;SDS011;2751;49.802;9.944;2023-07-29T05:46:13;3.80;;;2.83;;
5456;SDS011;2751;49.802;9.944;2023-07-29T05:48:40;3.07;;;2.87;;
5456;SDS011;2751;49.802;9.944;2023-07-29T05:51:06;3.47;;;3.17;;
5456;SDS011;2751;49.802;9.944;2023-07-29T05:53:33;5.33;;;2.80;;
5456;SDS011;2751;49.802;9.944;2023-07-29T05:56:00;4.50;;;3.20;;
5456;SDS011;2751;49.802;9.944;2023-07-29T05:58:47;2.73;;;2.53;;
5456;SDS011;2751;49.802;9.944;2023-07-29T06:01:14;3.40;;;3.07;;
5456;SDS011;2751;49.802;9.944;2023-07-29T06:03:41;3.20;;;2.60;;
5456;SDS011;2751;49.802;9.944;2023-07-29T06:06:08;5.30;;;2.70;;
5456;SDS011;2751;49.802;9.944;2023-07-29T06:08:35;7.33;;;3.57;;
5456;SDS011;2751;49.802;9.944;2023-07-29T06:11:02;5.63;;;4.60;;
5456;SDS011;2751;49.802;9.944;2023-07-29T06:13:31;2.57;;;2.27;;
5456;SDS011;2751;49.802;9.944;2023-07-29T06:15:59;2.80;;;2.60;;
5456;SDS011;2751;49.802;9.944;2023-07-29T06:18:26;6.23;;;5.40;;
5456;SDS011;2751;49.802;9.944;2023-07-29T06:20:53;6.00;;;3.80;;
5456;SDS011;2751;49.802;9.944;2023-07-29T06:23:20;5.17;;;3.60;;
5456;SDS011;2751;49.802;9.944;2023-07-29T06:25:46;3.43;;;2.70;;
5456;SDS011;2751;49.802;9.944;2023-07-29T06:28:13;2.70;;;2.23;;
5456;SDS011;2751;49.802;9.944;2023-07-29T06:30:40;9.23;;;8.00;;
5456;SDS011;2751;49.802;9.944;2023-07-29T06:33:08;3.57;;;2.20;;
5456;SDS011;2751;49.802;9.944;2023-07-29T06:35:35;7.43;;;2.97;;
5456;SDS011;2751;49.802;9.944;2023-07-29T06:38:02;6.40;;;4.17;;
5456;SDS011;2751;49.802;9.944;2023-07-29T06:40:29;9.13;;;8.17;;
5456;SDS011;2751;49.802;9.944;2023-07-29T06:42:56;2.80;;;2.60;;
5456;SDS011;2751;49.802;9.944;2023-07-29T06:45:23;2.67;;;2.43;;
5456;SDS011;2751;49.802;9.944;2023-07-29T06:47:50;4.80;;;2.70;;
5456;SDS011;2751;49.802;9.944;2023-07-29T06:50:21;3.60;;;2.53;;
5456;SDS011;2751;49.802;9.944;2023-07-29T06:52:48;2.17;;;2.07;;
5456;SDS011;2751;49.802;9.944;2023-07-29T06:55:15;6.00;;;2.37;;
5456;SDS011;2751;49.802;9.944;2023-07-29T06:57:42;6.00;;;2.30;;
5456;SDS011;2751;49.802;9.944;2023-07-29T07:00:09;2.27;;;2.07;;
5456;SDS011;2751;49.802;9.944;2023-07-29T07:02:36;2.43;;;2.23;;
5456;SDS011;2751;49.802;9.944;2023-07-29T07:05:03;2.80;;;2.03;;
5456;SDS011;2751;49.802;9.944;2023-07-29T07:07:32;2.30;;;2.20;;
5456;SDS011;2751;49.802;9.944;2023-07-29T07:09:59;2.37;;;2.27;;
5456;SDS011;2751;49.802;9.944;2023-07-29T07:12:26;1.93;;;1.80;;
5456;SDS011;2751;49.802;9.944;2023-07-29T07:14:53;3.37;;;2.10;;
5456;SDS011;2751;49.802;9.944;2023-07-29T07:17:20;2.40;;;2.07;;
5456;SDS011;2751;49.802;9.944;2023-07-29T07:19:47;2.33;;;2.23;;
5456;SDS011;2751;49.802;9.944;2023-07-29T07:22:14;2.00;;;1.90;;
5456;SDS011;2751;49.802;9.944;2023-07-29T07:24:42;2.50;;;2.27;;
5456;SDS011;2751;49.802;9.944;2023-07-29T07:27:09;3.93;;;2.77;;
5456;SDS011;2751;49.802;9.944;2023-07-29T07:29:36;6.23;;;2.50;;
5456;SDS011;2751;49.802;9.944;2023-07-29T07:32:03;10.43;;;9.33;;
5456;SDS011;2751;49.802;9.944;2023-07-29T07:34:30;3.83;;;2.80;;
5456;SDS011;2751;49.802;9.944;2023-07-29T07:36:58;4.33;;;2.40;;
5456;SDS011;2751;49.802;9.944;2023-07-29T07:39:25;3.03;;;2.73;;
5456;SDS011;2751;49.802;9.944;2023-07-29T07:41:54;5.30;;;2.43;;
5456;SDS011;2751;49.802;9.944;2023-07-29T07:44:20;3.20;;;2.90;;
5456;SDS011;2751;49.802;9.944;2023-07-29T07:46:47;1.97;;;1.87;;
5456;SDS011;2751;49.802;9.944;2023-07-29T07:49:14;8.60;;;2.60;;
5456;SDS011;2751;49.802;9.944;2023-07-29T07:51:41;2.40;;;2.20;;
5456;SDS011;2751;49.802;9.944;2023-07-29T07:54:09;2.00;;;1.90;;
5456;SDS011;2751;49.802;9.944;2023-07-29T07:56:36;2.47;;;2.00;;
5456;SDS011;2751;49.802;9.944;2023-07-29T07:59:05;2.27;;;1.90;;
5456;SDS011;2751;49.802;9.944;2023-07-29T08:01:33;5.57;;;2.07;;
5456;SDS011;2751;49.802;9.944;2023-07-29T08:04:01;2.40;;;1.90;;
5456;SDS011;2751;49.802;9.944;2023-07-29T08:06:29;2.23;;;1.53;;
5456;SDS011;2751;49.802;9.944;2023-07-29T08:08:56;1.97;;;1.83;;
5456;SDS011;2751;49.802;9.944;2023-07-29T08:11:23;2.07;;;1.67;;
5456;SDS011;2751;49.802;9.944;2023-07-29T08:13:50;2.53;;;1.47;;
5456;SDS011;2751;49.802;9.944;2023-07-29T08:16:18;1.30;;;1.20;;
5456;SDS011;2751;49.802;9.944;2023-07-29T08:18:45;1.97;;;1.77;;
5456;SDS011;2751;49.802;9.944;2023-07-29T08:21:12;1.93;;;1.70;;
5456;SDS011;2751;49.802;9.944;2023-07-29T08:23:39;1.50;;;1.40;;
5456;SDS011;2751;49.802;9.944;2023-07-29T08:26:06;1.00;;;0.90;;
5456;SDS011;2751;49.802;9.944;2023-07-29T08:28:34;1.47;;;1.00;;
5456;SDS011;2751;49.802;9.944;2023-07-29T08:31:02;1.20;;;1.10;;
5456;SDS011;2751;49.802;9.944;2023-07-29T08:33:31;1.37;;;1.20;;
5456;SDS011;2751;49.802;9.944;2023-07-29T08:35:59;1.53;;;1.23;;
5456;SDS011;2751;49.802;9.944;2023-07-29T08:38:27;0.90;;;0.90;;
5456;SDS011;2751;49.802;9.944;2023-07-29T08:40:55;1.27;;;1.17;;
5456;SDS011;2751;49.802;9.944;2023-07-29T08:43:28;0.90;;;0.90;;
5456;SDS011;2751;49.802;9.944;2023-07-29T08:45:56;1.83;;;1.10;;
5456;SDS011;2751;49.802;9.944;2023-07-29T08:51:23;1.73;;;1.60;;
5456;SDS011;2751;49.802;9.944;2023-07-29T08:53:50;1.80;;;1.70;;
5456;SDS011;2751;49.802;9.944;2023-07-29T08:56:18;2.03;;;1.70;;
5456;SDS011;2751;49.802;9.944;2023-07-29T08:58:45;2.33;;;2.13;;
5456;SDS011;2751;49.802;9.944;2023-07-29T09:01:12;2.20;;;2.00;;
5456;SDS011;2751;49.802;9.944;2023-07-29T09:03:41;2.60;;;2.20;;
5456;SDS011;2751;49.802;9.944;2023-07-29T09:06:09;2.00;;;1.90;;
5456;SDS011;2751;49.802;9.944;2023-07-29T09:08:37;2.13;;;1.73;;
5456;SDS011;2751;49.802;9.944;2023-07-29T09:11:04;3.00;;;1.70;;
5456;SDS011;2751;49.802;9.944;2023-07-29T09:13:31;3.73;;;3.33;;
5456;SDS011;2751;49.802;9.944;2023-07-29T09:15:58;3.60;;;1.50;;
5456;SDS011;2751;49.802;9.944;2023-07-29T09:18:26;1.30;;;1.30;;
5456;SDS011;2751;49.802;9.944;2023-07-29T09:20:53;1.83;;;1.40;;
5456;SDS011;2751;49.802;9.944;2023-07-29T09:23:21;1.80;;;1.70;;
5456;SDS011;2751;49.802;9.944;2023-07-29T09:25:48;1.30;;;1.20;;
5456;SDS011;2751;49.802;9.944;2023-07-29T09:28:16;1.37;;;0.80;;
5456;SDS011;2751;49.802;9.944;2023-07-29T09:30:45;1.20;;;1.10;;
5456;SDS011;2751;49.802;9.944;2023-07-29T09:33:13;0.90;;;0.90;;
5456;SDS011;2751;49.802;9.944;2023-07-29T09:35:40;1.23;;;0.80;;
5456;SDS011;2751;49.802;9.944;2023-07-29T09:38:07;0.80;;;0.80;;
5456;SDS011;2751;49.802;9.944;2023-07-29T09:40:41;0.80;;;0.80;;
5456;SDS011;2751;49.802;9.944;2023-07-29T09:43:10;1.30;;;1.07;;
5456;SDS011;2751;49.802;9.944;2023-07-29T09:45:37;2.23;;;1.00;;
5456;SDS011;2751;49.802;9.944;2023-07-29T09:48:06;1.20;;;1.07;;
5456;SDS011;2751;49.802;9.944;2023-07-29T09:50:35;1.10;;;0.90;;
5456;SDS011;2751;49.802;9.944;2023-07-29T09:53:02;1.37;;;0.80;;
5456;SDS011;2751;49.802;9.944;2023-07-29T09:55:29;1.63;;;1.40;;
5456;SDS011;2751;49.802;9.944;2023-07-29T09:58:01;2.30;;;2.10;;
5456;SDS011;2751;49.802;9.944;2023-07-29T10:00:32;5.13;;;1.90;;
5456;SDS011;2751;49.802;9.944;2023-07-29T10:02:59;3.43;;;3.33;;
5456;SDS011;2751;49.802;9.944;2023-07-29T10:05:26;2.20;;;2.10;;
5456;SDS011;2751;49.802;9.944;2023-07-29T10:07:54;5.20;;;4.90;;
5456;SDS011;2751;49.802;9.944;2023-07-29T10:10:22;4.53;;;4.30;;
5456;SDS011;2751;49.802;9.944;2023-07-29T10:12:49;5.37;;;5.17;;
5456;SDS011;2751;49.802;9.944;2023-07-29T10:15:18;5.00;;;4.50;;
5456;SDS011;2751;49.802;9.944;2023-07-29T10:17:45;5.80;;;5.60;;
5456;SDS011;2751;49.802;9.944;2023-07-29T10:20:12;5.80;;;5.60;;
5456;SDS011;2751;49.802;9.944;2023-07-29T10:22:40;5.83;;;5.63;;
5456;SDS011;2751;49.802;9.944;2023-07-29T10:25:10;5.80;;;5.60;;
5456;SDS011;2751;49.802;9.944;2023-07-29T10:27:42;5.83;;;5.63;;
5456;SDS011;2751;49.802;9.944;2023-07-29T10:30:12;7.00;;;6.70;;
5456;SDS011;2751;49.802;9.944;2023-07-29T10:32:43;6.20;;;5.90;;
5456;SDS011;2751;49.802;9.944;2023-07-29T10:35:11;6.73;;;6.40;;
5456;SDS011;2751;49.802;9.944;2023-07-29T10:37:38;7.53;;;7.13;;
5456;SDS011;2751;49.802;9.944;2023-07-29T10:40:07;8.30;;;7.90;;
5456;SDS011;2751;49.802;9.944;2023-07-29T10:42:35;9.30;;;8.80;;
5456;SDS011;2751;49.802;9.944;2023-07-29T10:45:17;9.00;;;8.50;;
5456;SDS011;2751;49.802;9.944;2023-07-29T10:47:47;9.00;;;8.70;;
5456;SDS011;2751;49.802;9.944;2023-07-29T10:50:17;10.57;;;10.07;;
5456;SDS011;2751;49.802;9.944;2023-07-29T10:52:48;11.17;;;10.67;;
5456;SDS011;2751;49.802;9.944;2023-07-29T10:55:23;12.17;;;11.57;;
5456;SDS011;2751;49.802;9.944;2023-07-29T10:57:52;10.53;;;10.03;;
5456;SDS011;2751;49.802;9.944;2023-07-29T11:00:30;10.70;;;10.30;;
5456;SDS011;2751;49.802;9.944;2023-07-29T11:03:00;10.50;;;10.10;;
5456;SDS011;2751;49.802;9.944;2023-07-29T11:05:41;11.40;;;10.83;;
5456;SDS011;2751;49.802;9.944;2023-07-29T11:08:23;10.00;;;9.60;;
5456;SDS011;2751;49.802;9.944;2023-07-29T11:11:03;10.80;;;10.30;;
5456;SDS011;2751;49.802;9.944;2023-07-29T11:13:32;11.13;;;10.63;;
5456;SDS011;2751;49.802;9.944;2023-07-29T11:16:00;10.60;;;9.93;;
5456;SDS011;2751;49.802;9.944;2023-07-29T11:18:29;10.23;;;9.83;;
5456;SDS011;2751;49.802;9.944;2023-07-29T11:20:57;10.67;;;10.07;;
5456;SDS011;2751;49.802;9.944;2023-07-29T11:23:28;11.10;;;10.60;;
5456;SDS011;2751;49.802;9.944;2023-07-29T11:25:56;11.90;;;11.30;;
5456;SDS011;2751;49.802;9.944;2023-07-29T11:28:24;12.03;;;11.53;;
5456;SDS011;2751;49.802;9.944;2023-07-29T11:30:52;13.67;;;12.67;;
5456;SDS011;2751;49.802;9.944;2023-07-29T11:33:20;13.40;;;12.77;;
5456;SDS011;2751;49.802;9.944;2023-07-29T11:35:50;13.93;;;13.23;;
5456;SDS011;2751;49.802;9.944;2023-07-29T11:38:18;13.70;;;13.10;;
5456;SDS011;2751;49.802;9.944;2023-07-29T11:40:58;13.70;;;13.07;;
5456;SDS011;2751;49.802;9.944;2023-07-29T11:43:28;13.40;;;12.80;;
5456;SDS011;2751;49.802;9.944;2023-07-29T11:45:55;12.90;;;12.30;;
5456;SDS011;2751;49.802;9.944;2023-07-29T11:48:28;12.50;;;11.80;;
5456;SDS011;2751;49.802;9.944;2023-07-29T11:50:59;12.40;;;11.80;;
5456;SDS011;2751;49.802;9.944;2023-07-29T11:53:27;11.90;;;11.40;;
5456;SDS011;2751;49.802;9.944;2023-07-29T11:55:55;12.00;;;11.40;;
5456;SDS011;2751;49.802;9.944;2023-07-29T11:58:23;11.67;;;11.17;;
5456;SDS011;2751;49.802;9.944;2023-07-29T12:00:50;11.80;;;11.30;;
5456;SDS011;2751;49.802;9.944;2023-07-29T12:03:18;11.37;;;10.87;;
5456;SDS011;2751;49.802;9.944;2023-07-29T12:05:45;11.33;;;10.83;;
5456;SDS011;2751;49.802;9.944;2023-07-29T12:11:13;11.10;;;10.60;;
5456;SDS011;2751;49.802;9.944;2023-07-29T12:13:41;11.17;;;10.57;;
5456;SDS011;2751;49.802;9.944;2023-07-29T12:16:08;11.03;;;10.53;;
5456;SDS011;2751;49.802;9.944;2023-07-29T12:18:35;10.87;;;10.37;;
5456;SDS011;2751;49.802;9.944;2023-07-29T12:21:02;10.73;;;10.10;;
5456;SDS011;2751;49.802;9.944;2023-07-29T12:23:29;11.07;;;10.47;;
5456;SDS011;2751;49.802;9.944;2023-07-29T12:25:56;10.60;;;10.20;;
5456;SDS011;2751;49.802;9.944;2023-07-29T12:28:26;11.00;;;10.50;;
5456;SDS011;2751;49.802;9.944;2023-07-29T12:30:53;11.80;;;11.17;;
5456;SDS011;2751;49.802;9.944;2023-07-29T12:33:30;11.70;;;11.20;;
5456;SDS011;2751;49.802;9.944;2023-07-29T12:35:57;11.87;;;11.37;;
5456;SDS011;2751;49.802;9.944;2023-07-29T12:38:25;11.90;;;11.20;;
5456;SDS011;2751;49.802;9.944;2023-07-29T12:40:52;5.50;;;5.20;;
5456;SDS011;2751;49.802;9.944;2023-07-29T12:43:19;5.07;;;4.67;;
5456;SDS011;2751;49.802;9.944;2023-07-29T12:45:47;3.73;;;3.53;;
5456;SDS011;2751;49.802;9.944;2023-07-29T12:48:15;4.43;;;4.10;;
5456;SDS011;2751;49.802;9.944;2023-07-29T12:50:42;4.07;;;3.70;;
5456;SDS011;2751;49.802;9.944;2023-07-29T12:53:09;4.07;;;3.50;;
5456;SDS011;2751;49.802;9.944;2023-07-29T12:55:36;5.53;;;3.43;;
5456;SDS011;2751;49.802;9.944;2023-07-29T12:58:03;2.83;;;2.70;;
5456;SDS011;2751;49.802;9.944;2023-07-29T13:00:30;3.80;;;3.50;;
5456;SDS011;2751;49.802;9.944;2023-07-29T13:02:58;4.00;;;3.70;;
5456;SDS011;2751;49.802;9.944;2023-07-29T13:05:25;3.27;;;2.97;;
5456;SDS011;2751;49.802;9.944;2023-07-29T13:07:52;3.03;;;2.80;;
5456;SDS011;2751;49.802;9.944;2023-07-29T13:10:19;2.83;;;2.63;;
5456;SDS011;2751;49.802;9.944;2023-07-29T13:12:46;2.30;;;2.20;;
5456;SDS011;2751;49.802;9.944;2023-07-29T13:15:14;5.70;;;2.27;;
5456;SDS011;2751;49.802;9.944;2023-07-29T13:17:40;2.37;;;2.23;;
5456;SDS011;2751;49.802;9.944;2023-07-29T13:20:09;2.57;;;2.47;;
5456;SDS011;2751;49.802;9.944;2023-07-29T13:22:36;2.90;;;2.80;;
5456;SDS011;2751;49.802;9.944;2023-07-29T13:25:03;4.00;;;3.80;;
5456;SDS011;2751;49.802;9.944;2023-07-29T13:27:30;4.50;;;4.40;;
5456;SDS011;2751;49.802;9.944;2023-07-29T13:29:57;4.90;;;4.70;;
5456;SDS011;2751;49.802;9.944;2023-07-29T13:32:24;5.50;;;5.30;;
5456;SDS011;2751;49.802;9.944;2023-07-29T13:34:51;5.30;;;5.10;;
5456;SDS011;2751;49.802;9.944;2023-07-29T13:37:19;5.43;;;5.23;;
5456;SDS011;2751;49.802;9.944;2023-07-29T13:39:46;5.93;;;5.73;;
5456;SDS011;2751;49.802;9.944;2023-07-29T13:42:13;5.80;;;5.60;;
5456;SDS011;2751;49.802;9.944;2023-07-29T13:44:40;6.20;;;5.60;;
5456;SDS011;2751;49.802;9.944;2023-07-29T13:47:06;7.13;;;6.93;;
5456;SDS011;2751;49.802;9.944;2023-07-29T13:49:33;9.50;;;9.20;;
5456;SDS011;2751;49.802;9.944;2023-07-29T13:52:00;10.30;;;9.90;;
5456;SDS011;2751;49.802;9.944;2023-07-29T13:54:29;9.77;;;9.33;;
5456;SDS011;2751;49.802;9.944;2023-07-29T13:56:56;10.07;;;9.60;;
5456;SDS011;2751;49.802;9.944;2023-07-29T13:59:23;10.30;;;9.90;;
5456;SDS011;2751;49.802;9.944;2023-07-29T14:01:50;9.80;;;9.40;;
5456;SDS011;2751;49.802;9.944;2023-07-29T14:04:17;10.70;;;9.77;;
5456;SDS011;2751;49.802;9.944;2023-07-29T14:06:43;10.20;;;9.70;;
5456;SDS011;2751;49.802;9.944;2023-07-29T14:09:11;10.20;;;9.77;;
5456;SDS011;2751;49.802;9.944;2023-07-29T14:11:39;10.23;;;9.83;;
5456;SDS011;2751;49.802;9.944;2023-07-29T14:14:06;10.73;;;10.33;;
5456;SDS011;2751;49.802;9.944;2023-07-29T14:16:33;10.70;;;10.20;;
5456;SDS011;2751;49.802;9.944;2023-07-29T14:19:00;9.87;;;9.43;;
5456;SDS011;2751;49.802;9.944;2023-07-29T14:21:27;10.80;;;10.30;;
5456;SDS011;2751;49.802;9.944;2023-07-29T14:23:54;11.00;;;10.30;;
5456;SDS011;2751;49.802;9.944;2023-07-29T14:26:20;10.90;;;10.40;;
5456;SDS011;2751;49.802;9.944;2023-07-29T14:28:49;10.83;;;10.43;;
5456;SDS011;2751;49.802;9.944;2023-07-29T14:31:16;11.13;;;10.63;;
5456;SDS011;2751;49.802;9.944;2023-07-29T14:33:44;11.13;;;10.73;;
5456;SDS011;2751;49.802;9.944;2023-07-29T14:36:11;11.43;;;10.70;;
5456;SDS011;2751;49.802;9.944;2023-07-29T14:38:55;10.70;;;10.30;;
5456;SDS011;2751;49.802;9.944;2023-07-29T14:41:22;11.00;;;10.50;;
5456;SDS011;2751;49.802;9.944;2023-07-29T14:43:51;10.97;;;10.50;;
5456;SDS011;2751;49.802;9.944;2023-07-29T14:46:18;11.83;;;11.30;;
5456;SDS011;2751;49.802;9.944;2023-07-29T14:48:44;11.53;;;11.03;;
5456;SDS011;2751;49.802;9.944;2023-07-29T14:51:12;11.60;;;11.00;;
5456;SDS011;2751;49.802;9.944;2023-07-29T14:53:39;10.80;;;10.30;;
5456;SDS011;2751;49.802;9.944;2023-07-29T14:56:06;10.50;;;10.10;;
5456;SDS011;2751;49.802;9.944;2023-07-29T14:58:32;11.13;;;10.63;;
5456;SDS011;2751;49.802;9.944;2023-07-29T15:01:01;11.20;;;10.60;;
5456;SDS011;2751;49.802;9.944;2023-07-29T15:03:28;10.80;;;10.40;;
5456;SDS011;2751;49.802;9.944;2023-07-29T15:05:55;10.57;;;10.07;;
5456;SDS011;2751;49.802;9.944;2023-07-29T15:08:24;10.70;;;10.30;;
5456;SDS011;2751;49.802;9.944;2023-07-29T15:10:51;10.63;;;10.13;;
5456;SDS011;2751;49.802;9.944;2023-07-29T15:13:19;10.77;;;10.30;;
5456;SDS011;2751;49.802;9.944;2023-07-29T15:15:45;11.33;;;10.83;;
5456;SDS011;2751;49.802;9.944;2023-07-29T15:18:16;10.67;;;10.17;;
5456;SDS011;2751;49.802;9.944;2023-07-29T15:20:43;11.23;;;10.83;;